sensor_id;sensor_type;location;lat;lon;timestamp;P1;durP1;ratioP1;P2;durP2;ratioP2
840;SDS011;406;48.566;13.450;2023-12-04T00:01:45;19.27;;;11.18;;
840;SDS011;406;48.566;13.450;2023-12-04T00:04:12;20.52;;;11.80;;
840;SDS011;406;48.566;13.450;2023-12-04T00:06:40;19.50;;;10.50;;
840;SDS011;406;48.566;13.450;2023-12-04T00:09:07;18.45;;;10.43;;
840;SDS011;406;48.566;13.450;2023-12-04T00:11:34;21.85;;;11.68;;
840;SDS011;406;48.566;13.450;2023-12-04T00:14:00;18.75;;;10.43;;
840;SDS011;406;48.566;13.450;2023-12-04T00:16:27;16.10;;;10.05;;
840;SDS011;406;48.566;13.450;2023-12-04T00:18:54;17.17;;;9.45;;
840;SDS011;406;48.566;13.450;2023-12-04T00:21:20;20.88;;;9.63;;
840;SDS011;406;48.566;13.450;2023-12-04T00:23:47;17.80;;;10.02;;
840;SDS011;406;48.566;13.450;2023-12-04T00:26:14;16.35;;;9.05;;
840;SDS011;406;48.566;13.450;2023-12-04T00:28:40;17.20;;;9.77;;
840;SDS011;406;48.566;13.450;2023-12-04T00:31:08;15.32;;;9.45;;
840;SDS011;406;48.566;13.450;2023-12-04T00:33:35;16.90;;;9.50;;
840;SDS011;406;48.566;13.450;2023-12-04T00:36:01;13.85;;;9.05;;
840;SDS011;406;48.566;13.450;2023-12-04T00:38:28;22.95;;;11.30;;
840;SDS011;406;48.566;13.450;2023-12-04T00:40:55;18.88;;;9.65;;
840;SDS011;406;48.566;13.450;2023-12-04T00:43:21;18.25;;;8.18;;
840;SDS011;406;48.566;13.450;2023-12-04T00:45:48;15.38;;;10.07;;
840;SDS011;406;48.566;13.450;2023-12-04T00:48:15;13.32;;;8.40;;
840;SDS011;406;48.566;13.450;2023-12-04T00:50:41;14.40;;;7.70;;
840;SDS011;406;48.566;13.450;2023-12-04T00:53:08;18.80;;;9.65;;
840;SDS011;406;48.566;13.450;2023-12-04T00:55:34;14.68;;;8.52;;
840;SDS011;406;48.566;13.450;2023-12-04T00:58:01;16.85;;;9.38;;
840;SDS011;406;48.566;13.450;2023-12-04T01:00:28;18.67;;;9.75;;
840;SDS011;406;48.566;13.450;2023-12-04T01:02:55;19.83;;;10.73;;
840;SDS011;406;48.566;13.450;2023-12-04T01:05:21;13.55;;;8.68;;
840;SDS011;406;48.566;13.450;2023-12-04T01:07:48;17.33;;;9.50;;
840;SDS011;406;48.566;13.450;2023-12-04T01:10:14;11.90;;;9.90;;
840;SDS011;406;48.566;13.450;2023-12-04T01:12:41;15.52;;;9.57;;
840;SDS011;406;48.566;13.450;2023-12-04T01:15:08;16.20;;;9.25;;
840;SDS011;406;48.566;13.450;2023-12-04T01:17:35;13.95;;;8.57;;
840;SDS011;406;48.566;13.450;2023-12-04T01:20:02;11.90;;;8.40;;
840;SDS011;406;48.566;13.450;2023-12-04T01:22:28;17.42;;;9.27;;
840;SDS011;406;48.566;13.450;2023-12-04T01:24:55;17.00;;;9.00;;
840;SDS011;406;48.566;13.450;2023-12-04T01:27:22;15.85;;;8.57;;
840;SDS011;406;48.566;13.450;2023-12-04T01:29:48;18.00;;;9.25;;
840;SDS011;406;48.566;13.450;2023-12-04T01:32:15;16.58;;;8.10;;
840;SDS011;406;48.566;13.450;2023-12-04T01:34:41;16.25;;;9.05;;
840;SDS011;406;48.566;13.450;2023-12-04T01:37:08;12.38;;;8.60;;
840;SDS011;406;48.566;13.450;2023-12-04T01:39:35;16.67;;;9.50;;
840;SDS011;406;48.566;13.450;2023-12-04T01:42:02;18.50;;;8.75;;
840;SDS011;406;48.566;13.450;2023-12-04T01:44:29;12.77;;;7.72;;
840;SDS011;406;48.566;13.450;2023-12-04T01:46:55;19.40;;;9.45;;
840;SDS011;406;48.566;13.450;2023-12-04T01:49:22;20.77;;;8.05;;
840;SDS011;406;48.566;13.450;2023-12-04T01:51:50;16.23;;;9.10;;
840;SDS011;406;48.566;13.450;2023-12-04T01:54:17;12.85;;;8.65;;
840;SDS011;406;48.566;13.450;2023-12-04T01:56:43;15.35;;;8.80;;
840;SDS011;406;48.566;13.450;2023-12-04T01:59:10;15.98;;;9.52;;
840;SDS011;406;48.566;13.450;2023-12-04T02:01:37;16.48;;;9.00;;
840;SDS011;406;48.566;13.450;2023-12-04T02:04:03;13.23;;;8.63;;
840;SDS011;406;48.566;13.450;2023-12-04T02:06:30;23.90;;;9.95;;
840;SDS011;406;48.566;13.450;2023-12-04T02:08:58;12.98;;;7.63;;
840;SDS011;406;48.566;13.450;2023-12-04T02:11:25;14.70;;;9.68;;
840;SDS011;406;48.566;13.450;2023-12-04T02:13:52;17.90;;;8.70;;
840;SDS011;406;48.566;13.450;2023-12-04T02:16:18;15.40;;;8.30;;
840;SDS011;406;48.566;13.450;2023-12-04T02:18:46;14.52;;;9.35;;
840;SDS011;406;48.566;13.450;2023-12-04T02:21:13;15.18;;;8.45;;
840;SDS011;406;48.566;13.450;2023-12-04T02:23:39;12.05;;;8.60;;
840;SDS011;406;48.566;13.450;2023-12-04T02:26:09;13.38;;;7.97;;
840;SDS011;406;48.566;13.450;2023-12-04T02:28:38;13.65;;;9.00;;
840;SDS011;406;48.566;13.450;2023-12-04T02:31:06;18.17;;;8.32;;
840;SDS011;406;48.566;13.450;2023-12-04T02:33:34;14.35;;;8.57;;
840;SDS011;406;48.566;13.450;2023-12-04T02:36:01;12.45;;;7.30;;
840;SDS011;406;48.566;13.450;2023-12-04T02:38:28;12.13;;;7.07;;
840;SDS011;406;48.566;13.450;2023-12-04T02:40:56;16.25;;;8.88;;
840;SDS011;406;48.566;13.450;2023-12-04T02:43:23;13.35;;;7.75;;
840;SDS011;406;48.566;13.450;2023-12-04T02:45:49;13.25;;;9.60;;
840;SDS011;406;48.566;13.450;2023-12-04T02:48:16;13.90;;;8.82;;
840;SDS011;406;48.566;13.450;2023-12-04T02:50:42;14.88;;;8.48;;
840;SDS011;406;48.566;13.450;2023-12-04T02:53:09;12.30;;;8.25;;
840;SDS011;406;48.566;13.450;2023-12-04T02:55:36;15.00;;;8.93;;
840;SDS011;406;48.566;13.450;2023-12-04T02:58:02;15.80;;;8.18;;
840;SDS011;406;48.566;13.450;2023-12-04T03:00:29;13.93;;;8.20;;
840;SDS011;406;48.566;13.450;2023-12-04T03:02:55;14.98;;;8.18;;
840;SDS011;406;48.566;13.450;2023-12-04T03:05:22;13.80;;;7.95;;
840;SDS011;406;48.566;13.450;2023-12-04T03:07:48;14.10;;;9.05;;
840;SDS011;406;48.566;13.450;2023-12-04T03:10:15;14.30;;;8.20;;
840;SDS011;406;48.566;13.450;2023-12-04T03:12:42;14.60;;;8.68;;
840;SDS011;406;48.566;13.450;2023-12-04T03:15:08;16.77;;;8.50;;
840;SDS011;406;48.566;13.450;2023-12-04T03:17:37;15.02;;;8.38;;
840;SDS011;406;48.566;13.450;2023-12-04T03:20:04;18.45;;;9.10;;
840;SDS011;406;48.566;13.450;2023-12-04T03:22:32;13.23;;;8.07;;
840;SDS011;406;48.566;13.450;2023-12-04T03:24:59;10.38;;;7.28;;
840;SDS011;406;48.566;13.450;2023-12-04T03:27:25;13.88;;;7.72;;
840;SDS011;406;48.566;13.450;2023-12-04T03:29:52;12.27;;;8.40;;
840;SDS011;406;48.566;13.450;2023-12-04T03:32:18;12.93;;;7.47;;
840;SDS011;406;48.566;13.450;2023-12-04T03:34:45;13.95;;;8.18;;
840;SDS011;406;48.566;13.450;2023-12-04T03:37:11;15.13;;;8.82;;
840;SDS011;406;48.566;13.450;2023-12-04T03:39:38;11.82;;;7.47;;
840;SDS011;406;48.566;13.450;2023-12-04T03:42:05;14.02;;;8.57;;
840;SDS011;406;48.566;13.450;2023-12-04T03:44:31;16.08;;;10.00;;
840;SDS011;406;48.566;13.450;2023-12-04T03:46:58;13.35;;;8.20;;
840;SDS011;406;48.566;13.450;2023-12-04T03:49:24;16.65;;;8.98;;
840;SDS011;406;48.566;13.450;2023-12-04T03:51:51;17.67;;;9.27;;
840;SDS011;406;48.566;13.450;2023-12-04T03:54:17;13.60;;;8.05;;
840;SDS011;406;48.566;13.450;2023-12-04T03:56:44;16.58;;;8.60;;
840;SDS011;406;48.566;13.450;2023-12-04T03:59:11;12.65;;;7.47;;
840;SDS011;406;48.566;13.450;2023-12-04T04:01:37;13.27;;;9.10;;
840;SDS011;406;48.566;13.450;2023-12-04T04:04:04;15.27;;;8.10;;
840;SDS011;406;48.566;13.450;2023-12-04T04:06:30;16.10;;;10.52;;
840;SDS011;406;48.566;13.450;2023-12-04T04:08:58;13.45;;;7.90;;
840;SDS011;406;48.566;13.450;2023-12-04T04:11:24;13.68;;;9.02;;
840;SDS011;406;48.566;13.450;2023-12-04T04:13:51;12.93;;;8.10;;
840;SDS011;406;48.566;13.450;2023-12-04T04:16:17;16.52;;;8.43;;
840;SDS011;406;48.566;13.450;2023-12-04T04:18:44;15.85;;;8.90;;
840;SDS011;406;48.566;13.450;2023-12-04T04:21:11;15.90;;;8.98;;
840;SDS011;406;48.566;13.450;2023-12-04T04:23:37;17.77;;;10.13;;
840;SDS011;406;48.566;13.450;2023-12-04T04:26:04;10.27;;;7.32;;
840;SDS011;406;48.566;13.450;2023-12-04T04:28:30;16.67;;;10.32;;
840;SDS011;406;48.566;13.450;2023-12-04T04:30:57;13.55;;;8.40;;
840;SDS011;406;48.566;13.450;2023-12-04T04:33:24;13.23;;;7.90;;
840;SDS011;406;48.566;13.450;2023-12-04T04:35:50;13.48;;;8.43;;
840;SDS011;406;48.566;13.450;2023-12-04T04:38:17;11.10;;;8.88;;
840;SDS011;406;48.566;13.450;2023-12-04T04:40:43;15.00;;;9.52;;
840;SDS011;406;48.566;13.450;2023-12-04T04:43:10;14.43;;;9.77;;
840;SDS011;406;48.566;13.450;2023-12-04T04:45:37;15.07;;;8.88;;
840;SDS011;406;48.566;13.450;2023-12-04T04:48:04;11.88;;;7.97;;
840;SDS011;406;48.566;13.450;2023-12-04T04:50:31;13.50;;;7.78;;
840;SDS011;406;48.566;13.450;2023-12-04T04:52:57;15.00;;;8.95;;
840;SDS011;406;48.566;13.450;2023-12-04T04:55:24;15.60;;;8.80;;
840;SDS011;406;48.566;13.450;2023-12-04T04:58:10;15.82;;;7.78;;
840;SDS011;406;48.566;13.450;2023-12-04T05:00:37;16.77;;;9.45;;
840;SDS011;406;48.566;13.450;2023-12-04T05:03:03;13.15;;;8.30;;
840;SDS011;406;48.566;13.450;2023-12-04T05:05:30;18.13;;;9.45;;
840;SDS011;406;48.566;13.450;2023-12-04T05:07:57;13.32;;;8.52;;
840;SDS011;406;48.566;13.450;2023-12-04T05:10:23;15.48;;;8.98;;
840;SDS011;406;48.566;13.450;2023-12-04T05:12:50;11.45;;;8.55;;
840;SDS011;406;48.566;13.450;2023-12-04T05:15:17;9.70;;;6.95;;
840;SDS011;406;48.566;13.450;2023-12-04T05:17:43;18.85;;;11.23;;
840;SDS011;406;48.566;13.450;2023-12-04T05:20:10;12.50;;;7.75;;
840;SDS011;406;48.566;13.450;2023-12-04T05:22:37;15.77;;;8.20;;
840;SDS011;406;48.566;13.450;2023-12-04T05:25:03;17.88;;;9.57;;
840;SDS011;406;48.566;13.450;2023-12-04T05:27:30;18.05;;;9.40;;
840;SDS011;406;48.566;13.450;2023-12-04T05:29:57;15.02;;;8.65;;
840;SDS011;406;48.566;13.450;2023-12-04T05:32:23;14.45;;;9.93;;
840;SDS011;406;48.566;13.450;2023-12-04T05:34:50;15.35;;;8.70;;
840;SDS011;406;48.566;13.450;2023-12-04T05:37:16;15.43;;;8.95;;
840;SDS011;406;48.566;13.450;2023-12-04T05:39:43;14.48;;;8.95;;
840;SDS011;406;48.566;13.450;2023-12-04T05:42:10;15.15;;;8.63;;
840;SDS011;406;48.566;13.450;2023-12-04T05:44:36;16.88;;;12.25;;
840;SDS011;406;48.566;13.450;2023-12-04T05:47:03;15.10;;;9.30;;
840;SDS011;406;48.566;13.450;2023-12-04T05:49:29;13.20;;;8.25;;
840;SDS011;406;48.566;13.450;2023-12-04T05:51:57;18.27;;;10.23;;
840;SDS011;406;48.566;13.450;2023-12-04T05:54:23;14.98;;;8.82;;
840;SDS011;406;48.566;13.450;2023-12-04T05:56:50;12.13;;;7.68;;
840;SDS011;406;48.566;13.450;2023-12-04T05:59:17;14.90;;;9.15;;
840;SDS011;406;48.566;13.450;2023-12-04T06:01:43;18.83;;;9.65;;
840;SDS011;406;48.566;13.450;2023-12-04T06:04:10;12.45;;;8.07;;
840;SDS011;406;48.566;13.450;2023-12-04T06:06:36;15.57;;;8.32;;
840;SDS011;406;48.566;13.450;2023-12-04T06:09:03;14.85;;;8.55;;
840;SDS011;406;48.566;13.450;2023-12-04T06:11:30;12.13;;;8.43;;
840;SDS011;406;48.566;13.450;2023-12-04T06:13:56;17.15;;;9.82;;
840;SDS011;406;48.566;13.450;2023-12-04T06:16:23;17.90;;;9.73;;
840;SDS011;406;48.566;13.450;2023-12-04T06:18:49;21.90;;;10.05;;
840;SDS011;406;48.566;13.450;2023-12-04T06:21:16;18.05;;;8.93;;
840;SDS011;406;48.566;13.450;2023-12-04T06:23:42;12.43;;;8.27;;
840;SDS011;406;48.566;13.450;2023-12-04T06:26:09;15.48;;;8.05;;
840;SDS011;406;48.566;13.450;2023-12-04T06:28:37;14.07;;;8.45;;
840;SDS011;406;48.566;13.450;2023-12-04T06:31:04;16.38;;;9.20;;
840;SDS011;406;48.566;13.450;2023-12-04T06:33:31;16.58;;;9.13;;
840;SDS011;406;48.566;13.450;2023-12-04T06:35:57;12.45;;;7.65;;
840;SDS011;406;48.566;13.450;2023-12-04T06:38:24;16.40;;;8.35;;
840;SDS011;406;48.566;13.450;2023-12-04T06:40:51;15.93;;;8.80;;
840;SDS011;406;48.566;13.450;2023-12-04T06:43:18;16.08;;;9.25;;
840;SDS011;406;48.566;13.450;2023-12-04T06:45:45;18.95;;;11.20;;
840;SDS011;406;48.566;13.450;2023-12-04T06:48:15;15.73;;;9.43;;
840;SDS011;406;48.566;13.450;2023-12-04T06:50:42;14.38;;;8.13;;
840;SDS011;406;48.566;13.450;2023-12-04T06:53:09;16.80;;;10.60;;
840;SDS011;406;48.566;13.450;2023-12-04T06:55:36;13.40;;;8.23;;
840;SDS011;406;48.566;13.450;2023-12-04T06:58:02;21.42;;;9.85;;
840;SDS011;406;48.566;13.450;2023-12-04T07:00:29;15.40;;;9.85;;
840;SDS011;406;48.566;13.450;2023-12-04T07:02:56;19.15;;;10.43;;
840;SDS011;406;48.566;13.450;2023-12-04T07:05:22;14.35;;;9.27;;
840;SDS011;406;48.566;13.450;2023-12-04T07:07:49;16.40;;;9.68;;
840;SDS011;406;48.566;13.450;2023-12-04T07:10:16;18.83;;;10.48;;
840;SDS011;406;48.566;13.450;2023-12-04T07:12:43;13.45;;;8.75;;
840;SDS011;406;48.566;13.450;2023-12-04T07:15:10;15.38;;;9.85;;
840;SDS011;406;48.566;13.450;2023-12-04T07:17:37;17.10;;;10.13;;
840;SDS011;406;48.566;13.450;2023-12-04T07:20:05;17.20;;;10.52;;
840;SDS011;406;48.566;13.450;2023-12-04T07:22:35;16.67;;;9.35;;
840;SDS011;406;48.566;13.450;2023-12-04T07:25:04;17.10;;;9.70;;
840;SDS011;406;48.566;13.450;2023-12-04T07:27:33;17.98;;;9.48;;
840;SDS011;406;48.566;13.450;2023-12-04T07:30:00;23.55;;;12.25;;
840;SDS011;406;48.566;13.450;2023-12-04T07:32:27;18.85;;;11.98;;
840;SDS011;406;48.566;13.450;2023-12-04T07:34:54;23.15;;;11.20;;
840;SDS011;406;48.566;13.450;2023-12-04T07:37:21;13.75;;;9.40;;
840;SDS011;406;48.566;13.450;2023-12-04T07:39:47;18.45;;;11.55;;
840;SDS011;406;48.566;13.450;2023-12-04T07:42:14;22.58;;;11.05;;
840;SDS011;406;48.566;13.450;2023-12-04T07:44:40;18.30;;;9.90;;
840;SDS011;406;48.566;13.450;2023-12-04T07:47:07;12.98;;;9.07;;
840;SDS011;406;48.566;13.450;2023-12-04T07:49:33;17.10;;;10.27;;
840;SDS011;406;48.566;13.450;2023-12-04T07:52:00;17.02;;;9.63;;
840;SDS011;406;48.566;13.450;2023-12-04T07:54:27;21.13;;;11.07;;
840;SDS011;406;48.566;13.450;2023-12-04T07:56:54;17.67;;;10.40;;
840;SDS011;406;48.566;13.450;2023-12-04T07:59:20;16.73;;;9.82;;
840;SDS011;406;48.566;13.450;2023-12-04T08:01:47;19.85;;;11.57;;
840;SDS011;406;48.566;13.450;2023-12-04T08:04:13;22.20;;;13.68;;
840;SDS011;406;48.566;13.450;2023-12-04T08:06:40;19.23;;;11.63;;
840;SDS011;406;48.566;13.450;2023-12-04T08:09:07;16.45;;;11.65;;
840;SDS011;406;48.566;13.450;2023-12-04T08:11:36;26.80;;;11.90;;
840;SDS011;406;48.566;13.450;2023-12-04T08:14:03;20.05;;;12.10;;
840;SDS011;406;48.566;13.450;2023-12-04T08:16:30;17.17;;;12.45;;
840;SDS011;406;48.566;13.450;2023-12-04T08:18:56;15.90;;;9.52;;
840;SDS011;406;48.566;13.450;2023-12-04T08:21:23;18.15;;;11.40;;
840;SDS011;406;48.566;13.450;2023-12-04T08:23:51;17.52;;;10.95;;
840;SDS011;406;48.566;13.450;2023-12-04T08:26:21;16.88;;;10.88;;
840;SDS011;406;48.566;13.450;2023-12-04T08:28:48;19.27;;;12.60;;
840;SDS011;406;48.566;13.450;2023-12-04T08:31:15;27.30;;;13.00;;
840;SDS011;406;48.566;13.450;2023-12-04T08:33:43;19.27;;;12.27;;
840;SDS011;406;48.566;13.450;2023-12-04T08:36:10;20.42;;;13.15;;
840;SDS011;406;48.566;13.450;2023-12-04T08:38:37;18.65;;;13.20;;
840;SDS011;406;48.566;13.450;2023-12-04T08:41:04;19.30;;;13.15;;
840;SDS011;406;48.566;13.450;2023-12-04T08:43:31;17.95;;;11.65;;
840;SDS011;406;48.566;13.450;2023-12-04T08:45:57;26.27;;;14.77;;
840;SDS011;406;48.566;13.450;2023-12-04T08:48:25;15.77;;;11.85;;
840;SDS011;406;48.566;13.450;2023-12-04T08:50:51;17.02;;;10.30;;
840;SDS011;406;48.566;13.450;2023-12-04T08:53:18;21.42;;;14.35;;
840;SDS011;406;48.566;13.450;2023-12-04T08:55:44;14.82;;;11.40;;
840;SDS011;406;48.566;13.450;2023-12-04T08:58:11;25.42;;;14.57;;
840;SDS011;406;48.566;13.450;2023-12-04T09:00:38;18.98;;;12.10;;
840;SDS011;406;48.566;13.450;2023-12-04T09:03:09;20.58;;;12.15;;
840;SDS011;406;48.566;13.450;2023-12-04T09:05:51;21.08;;;11.82;;
840;SDS011;406;48.566;13.450;2023-12-04T09:08:18;17.33;;;10.90;;
840;SDS011;406;48.566;13.450;2023-12-04T09:11:02;22.13;;;13.57;;
840;SDS011;406;48.566;13.450;2023-12-04T09:13:47;17.58;;;10.93;;
840;SDS011;406;48.566;13.450;2023-12-04T09:16:14;17.92;;;12.30;;
840;SDS011;406;48.566;13.450;2023-12-04T09:18:41;20.90;;;12.88;;
840;SDS011;406;48.566;13.450;2023-12-04T09:21:08;20.00;;;10.93;;
840;SDS011;406;48.566;13.450;2023-12-04T09:23:35;16.15;;;10.95;;
840;SDS011;406;48.566;13.450;2023-12-04T09:26:01;16.25;;;10.32;;
840;SDS011;406;48.566;13.450;2023-12-04T09:28:28;15.05;;;10.40;;
840;SDS011;406;48.566;13.450;2023-12-04T09:30:55;22.02;;;12.07;;
840;SDS011;406;48.566;13.450;2023-12-04T09:33:22;20.05;;;10.73;;
840;SDS011;406;48.566;13.450;2023-12-04T09:35:48;16.13;;;10.25;;
840;SDS011;406;48.566;13.450;2023-12-04T09:38:15;14.98;;;10.35;;
840;SDS011;406;48.566;13.450;2023-12-04T09:40:42;17.00;;;11.10;;
840;SDS011;406;48.566;13.450;2023-12-04T09:43:09;16.20;;;11.05;;
840;SDS011;406;48.566;13.450;2023-12-04T09:45:36;15.40;;;10.77;;
840;SDS011;406;48.566;13.450;2023-12-04T09:48:03;21.15;;;12.23;;
840;SDS011;406;48.566;13.450;2023-12-04T09:50:32;21.45;;;12.80;;
840;SDS011;406;48.566;13.450;2023-12-04T09:52:59;18.75;;;11.90;;
840;SDS011;406;48.566;13.450;2023-12-04T09:55:27;20.65;;;11.65;;
840;SDS011;406;48.566;13.450;2023-12-04T09:57:53;17.17;;;10.70;;
840;SDS011;406;48.566;13.450;2023-12-04T10:00:20;16.58;;;11.48;;
840;SDS011;406;48.566;13.450;2023-12-04T10:02:48;18.65;;;11.18;;
840;SDS011;406;48.566;13.450;2023-12-04T10:05:15;12.85;;;9.55;;
840;SDS011;406;48.566;13.450;2023-12-04T10:07:41;15.95;;;10.40;;
840;SDS011;406;48.566;13.450;2023-12-04T10:10:08;16.88;;;10.65;;
840;SDS011;406;48.566;13.450;2023-12-04T10:12:35;16.02;;;10.77;;
840;SDS011;406;48.566;13.450;2023-12-04T10:15:05;15.32;;;10.50;;
840;SDS011;406;48.566;13.450;2023-12-04T10:17:34;16.05;;;10.48;;
840;SDS011;406;48.566;13.450;2023-12-04T10:20:07;18.60;;;10.75;;
840;SDS011;406;48.566;13.450;2023-12-04T10:22:39;17.35;;;12.07;;
840;SDS011;406;48.566;13.450;2023-12-04T10:25:13;22.85;;;12.95;;
840;SDS011;406;48.566;13.450;2023-12-04T10:27:41;19.67;;;11.93;;
840;SDS011;406;48.566;13.450;2023-12-04T10:30:08;17.10;;;10.32;;
840;SDS011;406;48.566;13.450;2023-12-04T10:32:40;22.45;;;12.60;;
840;SDS011;406;48.566;13.450;2023-12-04T10:35:08;18.15;;;10.18;;
840;SDS011;406;48.566;13.450;2023-12-04T10:37:40;20.10;;;11.88;;
840;SDS011;406;48.566;13.450;2023-12-04T10:40:07;17.27;;;11.60;;
840;SDS011;406;48.566;13.450;2023-12-04T10:42:35;19.30;;;11.05;;
840;SDS011;406;48.566;13.450;2023-12-04T10:45:01;19.85;;;12.30;;
840;SDS011;406;48.566;13.450;2023-12-04T10:47:29;20.98;;;13.75;;
840;SDS011;406;48.566;13.450;2023-12-04T10:49:59;18.38;;;11.98;;
840;SDS011;406;48.566;13.450;2023-12-04T10:52:25;19.08;;;12.93;;
840;SDS011;406;48.566;13.450;2023-12-04T10:54:52;20.15;;;13.20;;
840;SDS011;406;48.566;13.450;2023-12-04T10:57:26;19.80;;;12.93;;
840;SDS011;406;48.566;13.450;2023-12-04T10:59:56;21.02;;;13.43;;
840;SDS011;406;48.566;13.450;2023-12-04T11:02:25;16.52;;;12.70;;
840;SDS011;406;48.566;13.450;2023-12-04T11:04:54;25.02;;;13.75;;
840;SDS011;406;48.566;13.450;2023-12-04T11:07:24;23.90;;;14.05;;
840;SDS011;406;48.566;13.450;2023-12-04T11:09:50;19.20;;;12.38;;
840;SDS011;406;48.566;13.450;2023-12-04T11:12:18;19.52;;;13.82;;
840;SDS011;406;48.566;13.450;2023-12-04T11:14:49;20.58;;;12.98;;
840;SDS011;406;48.566;13.450;2023-12-04T11:17:19;20.85;;;13.38;;
840;SDS011;406;48.566;13.450;2023-12-04T11:22:15;19.83;;;14.00;;
840;SDS011;406;48.566;13.450;2023-12-04T11:24:46;20.40;;;12.25;;
840;SDS011;406;48.566;13.450;2023-12-04T11:27:15;24.27;;;13.07;;
840;SDS011;406;48.566;13.450;2023-12-04T11:29:45;20.27;;;12.73;;
840;SDS011;406;48.566;13.450;2023-12-04T11:32:13;25.35;;;14.00;;
840;SDS011;406;48.566;13.450;2023-12-04T11:34:51;20.65;;;13.50;;
840;SDS011;406;48.566;13.450;2023-12-04T11:37:22;19.08;;;13.70;;
840;SDS011;406;48.566;13.450;2023-12-04T11:39:50;23.75;;;13.85;;
840;SDS011;406;48.566;13.450;2023-12-04T11:42:23;23.67;;;14.52;;
840;SDS011;406;48.566;13.450;2023-12-04T11:45:08;22.65;;;14.88;;
840;SDS011;406;48.566;13.450;2023-12-04T11:47:51;19.02;;;12.60;;
840;SDS011;406;48.566;13.450;2023-12-04T11:50:18;21.95;;;12.82;;
840;SDS011;406;48.566;13.450;2023-12-04T11:52:45;20.50;;;12.95;;
840;SDS011;406;48.566;13.450;2023-12-04T11:55:15;23.98;;;12.82;;
840;SDS011;406;48.566;13.450;2023-12-04T11:57:43;21.73;;;13.93;;
840;SDS011;406;48.566;13.450;2023-12-04T12:00:10;18.80;;;13.40;;
840;SDS011;406;48.566;13.450;2023-12-04T12:02:47;19.15;;;13.82;;
840;SDS011;406;48.566;13.450;2023-12-04T12:05:48;21.17;;;13.48;;
840;SDS011;406;48.566;13.450;2023-12-04T12:08:16;23.38;;;13.18;;
840;SDS011;406;48.566;13.450;2023-12-04T12:10:43;23.60;;;12.98;;
840;SDS011;406;48.566;13.450;2023-12-04T12:13:11;18.75;;;12.25;;
840;SDS011;406;48.566;13.450;2023-12-04T12:15:38;16.75;;;11.93;;
840;SDS011;406;48.566;13.450;2023-12-04T12:18:05;20.05;;;13.80;;
840;SDS011;406;48.566;13.450;2023-12-04T12:20:32;20.45;;;12.95;;
840;SDS011;406;48.566;13.450;2023-12-04T12:23:03;17.25;;;13.27;;
840;SDS011;406;48.566;13.450;2023-12-04T12:25:29;20.70;;;12.65;;
840;SDS011;406;48.566;13.450;2023-12-04T12:27:56;17.73;;;12.55;;
840;SDS011;406;48.566;13.450;2023-12-04T12:30:23;21.40;;;14.23;;
840;SDS011;406;48.566;13.450;2023-12-04T12:32:50;17.50;;;11.75;;
840;SDS011;406;48.566;13.450;2023-12-04T12:35:16;24.98;;;13.30;;
840;SDS011;406;48.566;13.450;2023-12-04T12:37:43;18.88;;;11.70;;
840;SDS011;406;48.566;13.450;2023-12-04T12:40:10;19.70;;;13.25;;
840;SDS011;406;48.566;13.450;2023-12-04T12:42:36;18.80;;;12.63;;
840;SDS011;406;48.566;13.450;2023-12-04T12:45:08;21.00;;;13.73;;
840;SDS011;406;48.566;13.450;2023-12-04T12:47:40;19.30;;;12.43;;
840;SDS011;406;48.566;13.450;2023-12-04T12:50:08;17.88;;;11.63;;
840;SDS011;406;48.566;13.450;2023-12-04T12:52:37;20.50;;;12.80;;
840;SDS011;406;48.566;13.450;2023-12-04T12:55:04;17.52;;;12.45;;
840;SDS011;406;48.566;13.450;2023-12-04T12:57:31;17.40;;;11.65;;
840;SDS011;406;48.566;13.450;2023-12-04T12:59:57;20.35;;;12.80;;
840;SDS011;406;48.566;13.450;2023-12-04T13:02:24;18.08;;;12.43;;
840;SDS011;406;48.566;13.450;2023-12-04T13:04:51;20.33;;;13.65;;
840;SDS011;406;48.566;13.450;2023-12-04T13:07:18;18.23;;;12.10;;
840;SDS011;406;48.566;13.450;2023-12-04T13:09:45;20.60;;;12.85;;
840;SDS011;406;48.566;13.450;2023-12-04T13:12:12;19.35;;;13.90;;
840;SDS011;406;48.566;13.450;2023-12-04T13:14:40;19.33;;;14.45;;
840;SDS011;406;48.566;13.450;2023-12-04T13:17:07;19.70;;;12.90;;
840;SDS011;406;48.566;13.450;2023-12-04T13:19:35;17.50;;;13.15;;
840;SDS011;406;48.566;13.450;2023-12-04T13:22:02;21.33;;;13.10;;
840;SDS011;406;48.566;13.450;2023-12-04T13:24:30;19.33;;;13.85;;
840;SDS011;406;48.566;13.450;2023-12-04T13:26:57;18.88;;;12.73;;
840;SDS011;406;48.566;13.450;2023-12-04T13:29:23;19.63;;;11.93;;
840;SDS011;406;48.566;13.450;2023-12-04T13:31:50;19.10;;;13.02;;
840;SDS011;406;48.566;13.450;2023-12-04T13:34:17;18.35;;;12.75;;
840;SDS011;406;48.566;13.450;2023-12-04T13:36:44;20.90;;;13.93;;
840;SDS011;406;48.566;13.450;2023-12-04T13:39:11;19.15;;;13.85;;
840;SDS011;406;48.566;13.450;2023-12-04T13:41:46;22.08;;;14.30;;
840;SDS011;406;48.566;13.450;2023-12-04T13:44:31;18.60;;;12.85;;
840;SDS011;406;48.566;13.450;2023-12-04T13:46:59;23.27;;;13.75;;
840;SDS011;406;48.566;13.450;2023-12-04T13:49:26;19.58;;;13.57;;
840;SDS011;406;48.566;13.450;2023-12-04T13:51:52;17.77;;;11.15;;
840;SDS011;406;48.566;13.450;2023-12-04T13:54:20;19.08;;;12.95;;
840;SDS011;406;48.566;13.450;2023-12-04T13:56:51;15.15;;;11.70;;
840;SDS011;406;48.566;13.450;2023-12-04T13:59:22;21.77;;;13.15;;
840;SDS011;406;48.566;13.450;2023-12-04T14:01:50;21.20;;;14.13;;
840;SDS011;406;48.566;13.450;2023-12-04T14:04:18;22.45;;;12.55;;
840;SDS011;406;48.566;13.450;2023-12-04T14:06:46;17.00;;;13.23;;
840;SDS011;406;48.566;13.450;2023-12-04T14:09:13;17.05;;;11.68;;
840;SDS011;406;48.566;13.450;2023-12-04T14:11:43;19.65;;;12.35;;
840;SDS011;406;48.566;13.450;2023-12-04T14:14:14;24.50;;;13.25;;
840;SDS011;406;48.566;13.450;2023-12-04T14:16:40;24.40;;;12.23;;
840;SDS011;406;48.566;13.450;2023-12-04T14:19:08;18.58;;;13.55;;
840;SDS011;406;48.566;13.450;2023-12-04T14:21:35;17.20;;;12.55;;
840;SDS011;406;48.566;13.450;2023-12-04T14:24:01;21.35;;;14.00;;
840;SDS011;406;48.566;13.450;2023-12-04T14:26:28;23.17;;;13.20;;
840;SDS011;406;48.566;13.450;2023-12-04T14:28:54;20.48;;;13.10;;
840;SDS011;406;48.566;13.450;2023-12-04T14:31:23;24.85;;;14.43;;
840;SDS011;406;48.566;13.450;2023-12-04T14:33:50;20.45;;;12.70;;
840;SDS011;406;48.566;13.450;2023-12-04T14:36:16;20.10;;;13.65;;
840;SDS011;406;48.566;13.450;2023-12-04T14:38:43;19.27;;;13.25;;
840;SDS011;406;48.566;13.450;2023-12-04T14:41:09;20.67;;;13.40;;
840;SDS011;406;48.566;13.450;2023-12-04T14:43:36;18.60;;;11.88;;
840;SDS011;406;48.566;13.450;2023-12-04T14:46:04;19.80;;;14.50;;
840;SDS011;406;48.566;13.450;2023-12-04T14:48:35;20.10;;;13.23;;
840;SDS011;406;48.566;13.450;2023-12-04T14:51:03;22.92;;;14.00;;
840;SDS011;406;48.566;13.450;2023-12-04T14:53:32;21.55;;;15.00;;
840;SDS011;406;48.566;13.450;2023-12-04T14:56:10;15.77;;;10.77;;
840;SDS011;406;48.566;13.450;2023-12-04T14:59:00;20.63;;;13.27;;
840;SDS011;406;48.566;13.450;2023-12-04T15:01:46;20.60;;;12.00;;
840;SDS011;406;48.566;13.450;2023-12-04T15:04:12;21.60;;;14.52;;
840;SDS011;406;48.566;13.450;2023-12-04T15:06:42;21.30;;;13.60;;
840;SDS011;406;48.566;13.450;2023-12-04T15:09:08;22.98;;;14.38;;
840;SDS011;406;48.566;13.450;2023-12-04T15:11:53;17.83;;;13.98;;
840;SDS011;406;48.566;13.450;2023-12-04T15:14:34;22.45;;;14.00;;